sensor_id;sensor_type;location;lat;lon;timestamp;temperature;humidity
36416;DHT22;22447;44.530;18.620;2023-03-01T00:01:29;2.20;99.90
36416;DHT22;22447;44.530;18.620;2023-03-01T00:03:56;2.30;99.90
36416;DHT22;22447;44.530;18.620;2023-03-01T00:06:23;2.30;99.90
36416;DHT22;22447;44.530;18.620;2023-03-01T00:08:48;2.30;99.90
36416;DHT22;22447;44.530;18.620;2023-03-01T00:11:17;2.30;99.90
36416;DHT22;22447;44.530;18.620;2023-03-01T00:13:46;2.20;99.90
36416;DHT22;22447;44.530;18.620;2023-03-01T00:16:15;2.10;99.90
36416;DHT22;22447;44.530;18.620;2023-03-01T00:18:42;2.10;99.90
36416;DHT22;22447;44.530;18.620;2023-03-01T00:21:08;2.20;99.90
36416;DHT22;22447;44.530;18.620;2023-03-01T00:23:35;2.20;99.90
36416;DHT22;22447;44.530;18.620;2023-03-01T00:26:01;2.20;99.90
36416;DHT22;22447;44.530;18.620;2023-03-01T00:28:27;2.20;99.90
36416;DHT22;22447;44.530;18.620;2023-03-01T00:30:53;2.20;99.90
36416;DHT22;22447;44.530;18.620;2023-03-01T00:33:19;2.30;99.90
36416;DHT22;22447;44.530;18.620;2023-03-01T00:35:45;2.30;99.90
36416;DHT22;22447;44.530;18.620;2023-03-01T00:38:11;2.20;99.90
36416;DHT22;22447;44.530;18.620;2023-03-01T00:40:37;2.30;99.90
36416;DHT22;22447;44.530;18.620;2023-03-01T00:43:03;2.40;99.90
36416;DHT22;22447;44.530;18.620;2023-03-01T00:45:30;2.40;99.90
36416;DHT22;22447;44.530;18.620;2023-03-01T00:47:57;2.40;99.90
36416;DHT22;22447;44.530;18.620;2023-03-01T00:50:23;2.40;99.90
36416;DHT22;22447;44.530;18.620;2023-03-01T00:52:55;2.50;99.90
36416;DHT22;22447;44.530;18.620;2023-03-01T00:55:22;2.50;99.90
36416;DHT22;22447;44.530;18.620;2023-03-01T00:57:48;2.50;99.90
36416;DHT22;22447;44.530;18.620;2023-03-01T01:00:14;2.50;99.90
36416;DHT22;22447;44.530;18.620;2023-03-01T01:02:40;2.50;99.90
36416;DHT22;22447;44.530;18.620;2023-03-01T01:05:07;2.40;99.90
36416;DHT22;22447;44.530;18.620;2023-03-01T01:07:33;2.40;99.90
36416;DHT22;22447;44.530;18.620;2023-03-01T01:09:59;2.40;99.90
36416;DHT22;22447;44.530;18.620;2023-03-01T01:12:25;2.40;99.90
36416;DHT22;22447;44.530;18.620;2023-03-01T01:14:51;2.40;99.90
36416;DHT22;22447;44.530;18.620;2023-03-01T01:17:17;2.40;99.90
36416;DHT22;22447;44.530;18.620;2023-03-01T01:19:43;2.40;99.90
36416;DHT22;22447;44.530;18.620;2023-03-01T01:22:09;2.40;99.90
36416;DHT22;22447;44.530;18.620;2023-03-01T01:24:35;2.30;99.90
36416;DHT22;22447;44.530;18.620;2023-03-01T01:27:01;2.30;99.90
36416;DHT22;22447;44.530;18.620;2023-03-01T01:29:27;2.20;99.90
36416;DHT22;22447;44.530;18.620;2023-03-01T01:31:53;2.10;99.90
36416;DHT22;22447;44.530;18.620;2023-03-01T01:34:21;2.10;99.90
36416;DHT22;22447;44.530;18.620;2023-03-01T01:36:51;2.10;99.90
36416;DHT22;22447;44.530;18.620;2023-03-01T01:39:21;2.10;99.90
36416;DHT22;22447;44.530;18.620;2023-03-01T01:41:48;2.10;99.90
36416;DHT22;22447;44.530;18.620;2023-03-01T01:44:24;2.20;99.90
36416;DHT22;22447;44.530;18.620;2023-03-01T01:52:42;2.30;99.90
36416;DHT22;22447;44.530;18.620;2023-03-01T01:55:22;2.20;99.90
36416;DHT22;22447;44.530;18.620;2023-03-01T01:57:52;2.20;99.90
36416;DHT22;22447;44.530;18.620;2023-03-01T02:00:22;2.20;99.90
36416;DHT22;22447;44.530;18.620;2023-03-01T02:02:52;2.10;99.90
36416;DHT22;22447;44.530;18.620;2023-03-01T02:08:11;2.20;99.90
36416;DHT22;22447;44.530;18.620;2023-03-01T02:10:38;2.20;99.90
36416;DHT22;22447;44.530;18.620;2023-03-01T02:13:05;2.20;99.90
36416;DHT22;22447;44.530;18.620;2023-03-01T02:15:33;2.20;99.90
36416;DHT22;22447;44.530;18.620;2023-03-01T02:17:59;2.20;99.90
36416;DHT22;22447;44.530;18.620;2023-03-01T02:20:33;2.30;99.90
36416;DHT22;22447;44.530;18.620;2023-03-01T02:23:00;2.30;99.90
36416;DHT22;22447;44.530;18.620;2023-03-01T02:30:45;2.30;99.90
36416;DHT22;22447;44.530;18.620;2023-03-01T02:33:32;2.30;99.90
36416;DHT22;22447;44.530;18.620;2023-03-01T02:36:10;2.30;99.90
36416;DHT22;22447;44.530;18.620;2023-03-01T02:38:42;2.20;99.90
36416;DHT22;22447;44.530;18.620;2023-03-01T02:41:11;2.30;99.90
36416;DHT22;22447;44.530;18.620;2023-03-01T02:43:39;2.20;99.90
36416;DHT22;22447;44.530;18.620;2023-03-01T02:46:17;2.30;99.90
36416;DHT22;22447;44.530;18.620;2023-03-01T02:48:49;2.30;99.90
36416;DHT22;22447;44.530;18.620;2023-03-01T02:51:25;2.40;99.90
36416;DHT22;22447;44.530;18.620;2023-03-01T02:54:11;2.30;99.90
36416;DHT22;22447;44.530;18.620;2023-03-01T02:56:39;2.30;99.90
36416;DHT22;22447;44.530;18.620;2023-03-01T02:59:06;2.30;99.90
36416;DHT22;22447;44.530;18.620;2023-03-01T03:01:34;2.30;99.90
36416;DHT22;22447;44.530;18.620;2023-03-01T03:04:10;2.20;99.90
36416;DHT22;22447;44.530;18.620;2023-03-01T03:06:37;2.20;99.90
36416;DHT22;22447;44.530;18.620;2023-03-01T03:09:04;2.10;99.90
36416;DHT22;22447;44.530;18.620;2023-03-01T03:11:30;2.10;99.90
36416;DHT22;22447;44.530;18.620;2023-03-01T03:13:58;2.10;99.90
36416;DHT22;22447;44.530;18.620;2023-03-01T03:16:24;2.20;99.90
36416;DHT22;22447;44.530;18.620;2023-03-01T03:18:51;2.20;99.90
36416;DHT22;22447;44.530;18.620;2023-03-01T03:21:16;2.10;99.90
36416;DHT22;22447;44.530;18.620;2023-03-01T03:23:43;2.20;99.90
36416;DHT22;22447;44.530;18.620;2023-03-01T03:26:09;2.40;99.90
36416;DHT22;22447;44.530;18.620;2023-03-01T03:28:39;2.40;99.90
36416;DHT22;22447;44.530;18.620;2023-03-01T03:31:07;2.30;99.90
36416;DHT22;22447;44.530;18.620;2023-03-01T03:33:33;2.20;99.90
36416;DHT22;22447;44.530;18.620;2023-03-01T03:35:59;2.30;99.90
36416;DHT22;22447;44.530;18.620;2023-03-01T03:38:25;2.40;99.90
36416;DHT22;22447;44.530;18.620;2023-03-01T03:40:59;2.40;99.90
36416;DHT22;22447;44.530;18.620;2023-03-01T03:43:30;2.40;99.90
36416;DHT22;22447;44.530;18.620;2023-03-01T03:45:56;2.20;99.90
36416;DHT22;22447;44.530;18.620;2023-03-01T03:48:23;2.20;99.90
36416;DHT22;22447;44.530;18.620;2023-03-01T03:50:54;2.20;99.90
36416;DHT22;22447;44.530;18.620;2023-03-01T03:53:21;2.30;99.90
36416;DHT22;22447;44.530;18.620;2023-03-01T03:55:48;2.00;99.90
36416;DHT22;22447;44.530;18.620;2023-03-01T03:58:19;2.10;99.90
36416;DHT22;22447;44.530;18.620;2023-03-01T04:00:46;2.10;99.90
36416;DHT22;22447;44.530;18.620;2023-03-01T04:03:14;2.10;99.90
36416;DHT22;22447;44.530;18.620;2023-03-01T04:05:41;2.10;99.90
36416;DHT22;22447;44.530;18.620;2023-03-01T04:08:07;2.20;99.90
36416;DHT22;22447;44.530;18.620;2023-03-01T04:10:43;2.20;99.90
36416;DHT22;22447;44.530;18.620;2023-03-01T04:13:15;2.10;99.90
36416;DHT22;22447;44.530;18.620;2023-03-01T04:15:42;2.10;99.90
36416;DHT22;22447;44.530;18.620;2023-03-01T04:18:13;2.10;99.90
36416;DHT22;22447;44.530;18.620;2023-03-01T04:20:39;2.30;99.90
36416;DHT22;22447;44.530;18.620;2023-03-01T04:23:07;2.20;99.90
36416;DHT22;22447;44.530;18.620;2023-03-01T04:25:54;2.30;99.90
36416;DHT22;22447;44.530;18.620;2023-03-01T04:28:25;2.40;99.90
36416;DHT22;22447;44.530;18.620;2023-03-01T04:30:52;2.20;99.90
36416;DHT22;22447;44.530;18.620;2023-03-01T04:33:18;2.30;99.90
36416;DHT22;22447;44.530;18.620;2023-03-01T04:35:44;2.30;99.90
36416;DHT22;22447;44.530;18.620;2023-03-01T04:38:11;2.40;99.90
36416;DHT22;22447;44.530;18.620;2023-03-01T04:40:37;2.40;99.90
36416;DHT22;22447;44.530;18.620;2023-03-01T04:43:04;2.30;99.90
36416;DHT22;22447;44.530;18.620;2023-03-01T04:45:31;2.40;99.90
36416;DHT22;22447;44.530;18.620;2023-03-01T04:48:00;2.30;99.90
36416;DHT22;22447;44.530;18.620;2023-03-01T04:50:26;2.30;99.90
36416;DHT22;22447;44.530;18.620;2023-03-01T04:52:52;2.40;99.90
36416;DHT22;22447;44.530;18.620;2023-03-01T04:55:18;2.30;99.90
36416;DHT22;22447;44.530;18.620;2023-03-01T04:57:45;2.30;99.90
36416;DHT22;22447;44.530;18.620;2023-03-01T05:00:13;2.30;99.90
36416;DHT22;22447;44.530;18.620;2023-03-01T05:02:51;2.40;99.90
36416;DHT22;22447;44.530;18.620;2023-03-01T05:05:25;2.30;99.90
36416;DHT22;22447;44.530;18.620;2023-03-01T05:07:55;2.30;99.90
36416;DHT22;22447;44.530;18.620;2023-03-01T05:10:22;2.30;99.90
36416;DHT22;22447;44.530;18.620;2023-03-01T05:12:48;2.40;99.90
36416;DHT22;22447;44.530;18.620;2023-03-01T05:15:14;2.30;99.90
36416;DHT22;22447;44.530;18.620;2023-03-01T05:17:40;2.30;99.90
36416;DHT22;22447;44.530;18.620;2023-03-01T05:20:07;2.30;99.90
36416;DHT22;22447;44.530;18.620;2023-03-01T05:22:37;2.30;99.90
36416;DHT22;22447;44.530;18.620;2023-03-01T05:25:03;2.30;99.90
36416;DHT22;22447;44.530;18.620;2023-03-01T05:27:30;2.20;99.90
36416;DHT22;22447;44.530;18.620;2023-03-01T05:29:56;2.20;99.90
36416;DHT22;22447;44.530;18.620;2023-03-01T05:32:22;2.30;99.90
36416;DHT22;22447;44.530;18.620;2023-03-01T05:34:48;2.30;99.90
36416;DHT22;22447;44.530;18.620;2023-03-01T05:37:14;2.40;99.90
36416;DHT22;22447;44.530;18.620;2023-03-01T05:39:40;2.40;99.90
36416;DHT22;22447;44.530;18.620;2023-03-01T05:42:10;2.40;99.90
36416;DHT22;22447;44.530;18.620;2023-03-01T05:44:36;2.40;99.90
36416;DHT22;22447;44.530;18.620;2023-03-01T05:47:02;2.40;99.90
36416;DHT22;22447;44.530;18.620;2023-03-01T05:49:28;2.40;99.90
36416;DHT22;22447;44.530;18.620;2023-03-01T05:51:55;2.30;99.90
36416;DHT22;22447;44.530;18.620;2023-03-01T05:54:22;2.10;99.90
36416;DHT22;22447;44.530;18.620;2023-03-01T05:56:48;2.10;99.90
36416;DHT22;22447;44.530;18.620;2023-03-01T05:59:13;2.20;99.90
36416;DHT22;22447;44.530;18.620;2023-03-01T06:01:42;2.20;99.90
36416;DHT22;22447;44.530;18.620;2023-03-01T06:04:08;2.20;99.90
36416;DHT22;22447;44.530;18.620;2023-03-01T06:06:35;2.30;99.90
36416;DHT22;22447;44.530;18.620;2023-03-01T06:09:06;2.20;99.90
36416;DHT22;22447;44.530;18.620;2023-03-01T06:11:34;2.20;99.90
36416;DHT22;22447;44.530;18.620;2023-03-01T06:14:00;2.10;99.90
36416;DHT22;22447;44.530;18.620;2023-03-01T06:16:26;2.10;99.90
36416;DHT22;22447;44.530;18.620;2023-03-01T06:18:52;2.00;99.90
36416;DHT22;22447;44.530;18.620;2023-03-01T06:21:18;2.00;99.90
36416;DHT22;22447;44.530;18.620;2023-03-01T06:23:44;2.00;99.90
36416;DHT22;22447;44.530;18.620;2023-03-01T06:26:10;2.10;99.90
36416;DHT22;22447;44.530;18.620;2023-03-01T06:28:36;2.00;99.90
36416;DHT22;22447;44.530;18.620;2023-03-01T06:31:02;2.10;99.90
36416;DHT22;22447;44.530;18.620;2023-03-01T06:33:28;2.30;99.90
36416;DHT22;22447;44.530;18.620;2023-03-01T06:35:55;2.40;99.90
36416;DHT22;22447;44.530;18.620;2023-03-01T06:38:23;2.50;99.90
36416;DHT22;22447;44.530;18.620;2023-03-01T06:40:53;2.40;99.90
36416;DHT22;22447;44.530;18.620;2023-03-01T06:43:20;2.10;99.90
36416;DHT22;22447;44.530;18.620;2023-03-01T06:45:46;2.20;99.90
36416;DHT22;22447;44.530;18.620;2023-03-01T06:48:12;2.30;99.90
36416;DHT22;22447;44.530;18.620;2023-03-01T06:50:38;2.40;99.90
36416;DHT22;22447;44.530;18.620;2023-03-01T06:53:04;2.50;99.90
36416;DHT22;22447;44.530;18.620;2023-03-01T06:55:31;2.50;99.90
36416;DHT22;22447;44.530;18.620;2023-03-01T06:57:58;2.40;99.90
36416;DHT22;22447;44.530;18.620;2023-03-01T07:00:25;2.30;99.90
36416;DHT22;22447;44.530;18.620;2023-03-01T07:02:51;2.30;99.90
36416;DHT22;22447;44.530;18.620;2023-03-01T07:05:17;2.30;99.90
36416;DHT22;22447;44.530;18.620;2023-03-01T07:07:43;2.30;99.90
36416;DHT22;22447;44.530;18.620;2023-03-01T07:10:10;2.20;99.90
36416;DHT22;22447;44.530;18.620;2023-03-01T07:12:36;2.30;99.90
36416;DHT22;22447;44.530;18.620;2023-03-01T07:15:02;2.30;99.90
36416;DHT22;22447;44.530;18.620;2023-03-01T07:17:28;2.30;99.90
36416;DHT22;22447;44.530;18.620;2023-03-01T07:19:54;2.30;99.90
36416;DHT22;22447;44.530;18.620;2023-03-01T07:22:20;2.40;99.90
36416;DHT22;22447;44.530;18.620;2023-03-01T07:24:46;2.50;99.90
36416;DHT22;22447;44.530;18.620;2023-03-01T07:27:12;2.40;99.90
36416;DHT22;22447;44.530;18.620;2023-03-01T07:29:38;2.50;99.90
36416;DHT22;22447;44.530;18.620;2023-03-01T07:32:05;2.50;99.90
36416;DHT22;22447;44.530;18.620;2023-03-01T07:34:32;2.60;99.90
36416;DHT22;22447;44.530;18.620;2023-03-01T07:36:58;2.70;99.90
36416;DHT22;22447;44.530;18.620;2023-03-01T07:39:24;2.70;99.90
36416;DHT22;22447;44.530;18.620;2023-03-01T07:41:50;2.60;99.90
36416;DHT22;22447;44.530;18.620;2023-03-01T07:44:20;2.80;99.90
36416;DHT22;22447;44.530;18.620;2023-03-01T07:46:46;2.90;99.90
36416;DHT22;22447;44.530;18.620;2023-03-01T07:49:12;2.90;99.90
36416;DHT22;22447;44.530;18.620;2023-03-01T07:51:38;2.80;99.90
36416;DHT22;22447;44.530;18.620;2023-03-01T07:54:04;2.80;99.90
36416;DHT22;22447;44.530;18.620;2023-03-01T07:56:30;2.90;99.90
36416;DHT22;22447;44.530;18.620;2023-03-01T07:58:56;3.00;99.90
36416;DHT22;22447;44.530;18.620;2023-03-01T08:01:22;3.00;99.90
36416;DHT22;22447;44.530;18.620;2023-03-01T08:03:48;3.10;99.90
36416;DHT22;22447;44.530;18.620;2023-03-01T08:06:16;3.10;99.90
36416;DHT22;22447;44.530;18.620;2023-03-01T08:08:42;3.20;99.90
36416;DHT22;22447;44.530;18.620;2023-03-01T08:11:11;3.10;99.90
36416;DHT22;22447;44.530;18.620;2023-03-01T08:13:37;3.10;99.90
36416;DHT22;22447;44.530;18.620;2023-03-01T08:16:06;3.00;99.90
36416;DHT22;22447;44.530;18.620;2023-03-01T08:18:32;3.10;99.90
36416;DHT22;22447;44.530;18.620;2023-03-01T08:21:10;3.10;99.90
36416;DHT22;22447;44.530;18.620;2023-03-01T08:23:37;3.20;99.90
36416;DHT22;22447;44.530;18.620;2023-03-01T08:26:09;3.10;99.90
36416;DHT22;22447;44.530;18.620;2023-03-01T08:28:35;3.10;99.90
36416;DHT22;22447;44.530;18.620;2023-03-01T08:31:02;3.00;99.90
36416;DHT22;22447;44.530;18.620;2023-03-01T08:33:28;3.00;99.90
36416;DHT22;22447;44.530;18.620;2023-03-01T08:36:03;3.10;99.90
36416;DHT22;22447;44.530;18.620;2023-03-01T08:38:30;3.20;99.90
36416;DHT22;22447;44.530;18.620;2023-03-01T08:40:59;3.10;99.90
36416;DHT22;22447;44.530;18.620;2023-03-01T08:43:26;3.10;99.90
36416;DHT22;22447;44.530;18.620;2023-03-01T08:45:52;3.20;99.90
36416;DHT22;22447;44.530;18.620;2023-03-01T08:48:17;3.30;99.90
36416;DHT22;22447;44.530;18.620;2023-03-01T08:50:43;3.40;99.90
36416;DHT22;22447;44.530;18.620;2023-03-01T08:53:09;3.30;99.90
36416;DHT22;22447;44.530;18.620;2023-03-01T08:55:35;3.30;99.90
36416;DHT22;22447;44.530;18.620;2023-03-01T08:58:01;3.40;99.90
36416;DHT22;22447;44.530;18.620;2023-03-01T09:00:27;3.40;99.90
36416;DHT22;22447;44.530;18.620;2023-03-01T09:02:53;3.50;99.90
36416;DHT22;22447;44.530;18.620;2023-03-01T09:05:19;3.50;99.90
36416;DHT22;22447;44.530;18.620;2023-03-01T09:07:45;3.40;99.90
36416;DHT22;22447;44.530;18.620;2023-03-01T09:10:11;3.50;99.90
36416;DHT22;22447;44.530;18.620;2023-03-01T09:12:37;3.50;99.90
36416;DHT22;22447;44.530;18.620;2023-03-01T09:15:03;3.70;99.90
36416;DHT22;22447;44.530;18.620;2023-03-01T09:17:29;3.80;99.90
36416;DHT22;22447;44.530;18.620;2023-03-01T09:19:55;3.90;99.90
36416;DHT22;22447;44.530;18.620;2023-03-01T09:22:21;4.00;99.90
36416;DHT22;22447;44.530;18.620;2023-03-01T09:24:47;3.90;99.90
36416;DHT22;22447;44.530;18.620;2023-03-01T09:27:13;3.70;99.90
36416;DHT22;22447;44.530;18.620;2023-03-01T09:29:40;3.80;99.90
36416;DHT22;22447;44.530;18.620;2023-03-01T09:32:06;3.60;99.90
36416;DHT22;22447;44.530;18.620;2023-03-01T09:34:33;3.80;99.90
36416;DHT22;22447;44.530;18.620;2023-03-01T09:37:19;3.90;99.90
36416;DHT22;22447;44.530;18.620;2023-03-01T09:39:45;4.10;99.90
36416;DHT22;22447;44.530;18.620;2023-03-01T09:42:12;4.00;99.90
36416;DHT22;22447;44.530;18.620;2023-03-01T09:47:41;4.30;99.90
36416;DHT22;22447;44.530;18.620;2023-03-01T09:53:03;4.30;99.90
36416;DHT22;22447;44.530;18.620;2023-03-01T09:58:27;4.40;99.90
36416;DHT22;22447;44.530;18.620;2023-03-01T10:00:57;4.30;99.90
36416;DHT22;22447;44.530;18.620;2023-03-01T10:03:32;4.10;99.90
36416;DHT22;22447;44.530;18.620;2023-03-01T10:06:04;4.30;99.90
36416;DHT22;22447;44.530;18.620;2023-03-01T10:11:28;4.30;99.90
36416;DHT22;22447;44.530;18.620;2023-03-01T10:14:03;4.20;99.90
36416;DHT22;22447;44.530;18.620;2023-03-01T10:16:53;4.20;99.90
36416;DHT22;22447;44.530;18.620;2023-03-01T10:19:27;4.10;99.90
36416;DHT22;22447;44.530;18.620;2023-03-01T10:22:00;4.00;99.90
36416;DHT22;22447;44.530;18.620;2023-03-01T10:24:33;4.00;99.90
36416;DHT22;22447;44.530;18.620;2023-03-01T10:27:15;3.90;99.90
36416;DHT22;22447;44.530;18.620;2023-03-01T10:32:22;3.90;99.90
36416;DHT22;22447;44.530;18.620;2023-03-01T10:34:48;4.00;99.90
36416;DHT22;22447;44.530;18.620;2023-03-01T10:37:17;4.10;99.90
36416;DHT22;22447;44.530;18.620;2023-03-01T10:40:02;4.20;99.90
36416;DHT22;22447;44.530;18.620;2023-03-01T10:42:47;4.30;99.90
36416;DHT22;22447;44.530;18.620;2023-03-01T10:50:48;4.40;99.90
36416;DHT22;22447;44.530;18.620;2023-03-01T10:58:28;4.20;99.90
36416;DHT22;22447;44.530;18.620;2023-03-01T11:05:57;4.00;99.90
36416;DHT22;22447;44.530;18.620;2023-03-01T11:08:44;4.00;99.90
36416;DHT22;22447;44.530;18.620;2023-03-01T11:11:29;4.00;99.90
36416;DHT22;22447;44.530;18.620;2023-03-01T11:14:17;4.00;99.90
36416;DHT22;22447;44.530;18.620;2023-03-01T11:16:46;4.00;99.90
36416;DHT22;22447;44.530;18.620;2023-03-01T11:22:02;4.00;99.90
36416;DHT22;22447;44.530;18.620;2023-03-01T11:24:42;4.10;99.90
36416;DHT22;22447;44.530;18.620;2023-03-01T11:27:32;4.00;99.90
36416;DHT22;22447;44.530;18.620;2023-03-01T11:30:41;4.00;99.90
36416;DHT22;22447;44.530;18.620;2023-03-01T11:33:10;4.00;99.90
36416;DHT22;22447;44.530;18.620;2023-03-01T11:35:42;4.20;99.90
36416;DHT22;22447;44.530;18.620;2023-03-01T11:38:25;4.30;99.90
36416;DHT22;22447;44.530;18.620;2023-03-01T11:41:11;4.30;99.90
36416;DHT22;22447;44.530;18.620;2023-03-01T11:49:19;4.20;99.90
36416;DHT22;22447;44.530;18.620;2023-03-01T11:54:52;4.40;99.90
36416;DHT22;22447;44.530;18.620;2023-03-01T12:00:11;4.40;99.90
36416;DHT22;22447;44.530;18.620;2023-03-01T12:03:22;4.60;99.90
36416;DHT22;22447;44.530;18.620;2023-03-01T12:09:02;5.00;99.90
36416;DHT22;22447;44.530;18.620;2023-03-01T12:14:28;5.10;99.90
36416;DHT22;22447;44.530;18.620;2023-03-01T12:19:49;5.10;99.90
36416;DHT22;22447;44.530;18.620;2023-03-01T12:22:37;5.20;99.90
36416;DHT22;22447;44.530;18.620;2023-03-01T12:31:02;4.80;99.90
36416;DHT22;22447;44.530;18.620;2023-03-01T12:33:59;5.10;99.90
36416;DHT22;22447;44.530;18.620;2023-03-01T12:39:42;5.10;99.90
36416;DHT22;22447;44.530;18.620;2023-03-01T12:52:49;5.10;99.90
36416;DHT22;22447;44.530;18.620;2023-03-01T12:55:38;5.30;99.90
36416;DHT22;22447;44.530;18.620;2023-03-01T13:07:35;5.20;99.90
36416;DHT22;22447;44.530;18.620;2023-03-01T13:17:53;5.00;99.90
36416;DHT22;22447;44.530;18.620;2023-03-01T13:20:25;5.00;99.90
36416;DHT22;22447;44.530;18.620;2023-03-01T13:33:45;4.70;99.90
36416;DHT22;22447;44.530;18.620;2023-03-01T13:39:03;4.80;99.90
36416;DHT22;22447;44.530;18.620;2023-03-01T13:44:24;4.70;99.90
36416;DHT22;22447;44.530;18.620;2023-03-01T13:49:53;4.70;99.90
36416;DHT22;22447;44.530;18.620;2023-03-01T13:52:43;4.80;99.90
36416;DHT22;22447;44.530;18.620;2023-03-01T13:58:02;4.60;99.90
36416;DHT22;22447;44.530;18.620;2023-03-01T14:00:37;4.70;99.90
36416;DHT22;22447;44.530;18.620;2023-03-01T14:05:31;4.70;99.90
36416;DHT22;22447;44.530;18.620;2023-03-01T14:07:57;4.70;99.90
36416;DHT22;22447;44.530;18.620;2023-03-01T14:10:27;4.70;99.90
36416;DHT22;22447;44.530;18.620;2023-03-01T14:21:01;4.70;99.90
36416;DHT22;22447;44.530;18.620;2023-03-01T14:23:32;4.60;99.90
36416;DHT22;22447;44.530;18.620;2023-03-01T14:26:00;4.50;99.90
36416;DHT22;22447;44.530;18.620;2023-03-01T14:28:31;4.40;99.90
36416;DHT22;22447;44.530;18.620;2023-03-01T14:31:00;4.30;99.90
36416;DHT22;22447;44.530;18.620;2023-03-01T14:33:36;4.20;99.90
36416;DHT22;22447;44.530;18.620;2023-03-01T14:36:05;4.40;99.90
36416;DHT22;22447;44.530;18.620;2023-03-01T14:38:47;4.30;99.90
36416;DHT22;22447;44.530;18.620;2023-03-01T14:41:16;4.30;99.90
36416;DHT22;22447;44.530;18.620;2023-03-01T14:43:45;4.30;99.90
36416;DHT22;22447;44.530;18.620;2023-03-01T14:46:26;4.30;99.90
36416;DHT22;22447;44.530;18.620;2023-03-01T14:48:55;4.10;99.90
36416;DHT22;22447;44.530;18.620;2023-03-01T14:51:22;4.10;99.90
36416;DHT22;22447;44.530;18.620;2023-03-01T14:53:49;4.20;99.90
36416;DHT22;22447;44.530;18.620;2023-03-01T14:56:16;4.30;99.90
36416;DHT22;22447;44.530;18.620;2023-03-01T14:58:46;4.40;99.90
36416;DHT22;22447;44.530;18.620;2023-03-01T15:01:15;4.40;99.90
36416;DHT22;22447;44.530;18.620;2023-03-01T15:03:51;4.30;99.90
36416;DHT22;22447;44.530;18.620;2023-03-01T15:06:19;4.30;99.90
36416;DHT22;22447;44.530;18.620;2023-03-01T15:08:48;4.30;99.90
36416;DHT22;22447;44.530;18.620;2023-03-01T15:11:23;4.40;99.90
36416;DHT22;22447;44.530;18.620;2023-03-01T15:13:51;4.40;99.90
36416;DHT22;22447;44.530;18.620;2023-03-01T15:16:26;4.40;99.90
36416;DHT22;22447;44.530;18.620;2023-03-01T15:19:03;4.30;99.90
36416;DHT22;22447;44.530;18.620;2023-03-01T15:21:34;4.30;99.90
36416;DHT22;22447;44.530;18.620;2023-03-01T15:26:42;4.30;99.90
36416;DHT22;22447;44.530;18.620;2023-03-01T15:29:21;4.30;99.90
36416;DHT22;22447;44.530;18.620;2023-03-01T15:32:02;4.20;99.90
36416;DHT22;22447;44.530;18.620;2023-03-01T15:34:38;4.00;99.90
36416;DHT22;22447;44.530;18.620;2023-03-01T15:37:06;4.00;99.90
36416;DHT22;22447;44.530;18.620;2023-03-01T15:39:42;4.00;99.90
36416;DHT22;22447;44.530;18.620;2023-03-01T15:42:09;4.00;99.90
36416;DHT22;22447;44.530;18.620;2023-03-01T15:44:39;4.00;99.90
36416;DHT22;22447;44.530;18.620;2023-03-01T15:47:28;3.90;99.90
36416;DHT22;22447;44.530;18.620;2023-03-01T15:49:55;3.90;99.90
36416;DHT22;22447;44.530;18.620;2023-03-01T15:52:34;4.00;99.90
36416;DHT22;22447;44.530;18.620;2023-03-01T15:55:19;3.90;99.90
36416;DHT22;22447;44.530;18.620;2023-03-01T15:57:46;3.70;99.90
36416;DHT22;22447;44.530;18.620;2023-03-01T16:00:13;3.60;99.90
36416;DHT22;22447;44.530;18.620;2023-03-01T16:02:41;3.50;99.90
36416;DHT22;22447;44.530;18.620;2023-03-01T16:05:23;3.60;99.90
36416;DHT22;22447;44.530;18.620;2023-03-01T16:07:50;3.60;99.90
36416;DHT22;22447;44.530;18.620;2023-03-01T16:10:17;3.70;99.90
36416;DHT22;22447;44.530;18.620;2023-03-01T16:12:43;3.70;99.90
36416;DHT22;22447;44.530;18.620;2023-03-01T16:15:32;3.50;99.90
36416;DHT22;22447;44.530;18.620;2023-03-01T16:18:02;3.40;99.90
36416;DHT22;22447;44.530;18.620;2023-03-01T16:20:29;3.30;99.90
36416;DHT22;22447;44.530;18.620;2023-03-01T16:22:58;3.40;99.90
36416;DHT22;22447;44.530;18.620;2023-03-01T16:25:25;3.40;99.90
36416;DHT22;22447;44.530;18.620;2023-03-01T16:27:51;3.40;99.90
36416;DHT22;22447;44.530;18.620;2023-03-01T16:30:21;3.40;99.90
36416;DHT22;22447;44.530;18.620;2023-03-01T16:32:48;3.20;99.90
36416;DHT22;22447;44.530;18.620;2023-03-01T16:35:16;3.20;99.90
36416;DHT22;22447;44.530;18.620;2023-03-01T16:37:43;3.30;99.90
36416;DHT22;22447;44.530;18.620;2023-03-01T16:40:24;3.40;99.90
36416;DHT22;22447;44.530;18.620;2023-03-01T16:42:51;3.50;99.90
36416;DHT22;22447;44.530;18.620;2023-03-01T16:45:18;3.60;99.90
36416;DHT22;22447;44.530;18.620;2023-03-01T16:47:44;3.50;99.90
36416;DHT22;22447;44.530;18.620;2023-03-01T16:50:11;3.50;99.90
36416;DHT22;22447;44.530;18.620;2023-03-01T16:52:37;3.50;99.90
36416;DHT22;22447;44.530;18.620;2023-03-01T16:55:05;3.60;99.90
36416;DHT22;22447;44.530;18.620;2023-03-01T16:57:34;3.30;99.90
36416;DHT22;22447;44.530;18.620;2023-03-01T17:00:00;3.40;99.90
36416;DHT22;22447;44.530;18.620;2023-03-01T17:02:26;3.50;99.90
36416;DHT22;22447;44.530;18.620;2023-03-01T17:04:56;3.40;99.90
36416;DHT22;22447;44.530;18.620;2023-03-01T17:07:22;3.50;99.90
36416;DHT22;22447;44.530;18.620;2023-03-01T17:09:48;3.50;99.90
36416;DHT22;22447;44.530;18.620;2023-03-01T17:12:15;3.70;99.90
36416;DHT22;22447;44.530;18.620;2023-03-01T17:14:41;3.70;99.90
36416;DHT22;22447;44.530;18.620;2023-03-01T17:17:08;3.80;99.90
36416;DHT22;22447;44.530;18.620;2023-03-01T17:19:35;3.70;99.90
36416;DHT22;22447;44.530;18.620;2023-03-01T17:22:05;3.70;99.90
36416;DHT22;22447;44.530;18.620;2023-03-01T17:24:36;3.60;99.90
36416;DHT22;22447;44.530;18.620;2023-03-01T17:27:03;3.60;99.90
36416;DHT22;22447;44.530;18.620;2023-03-01T17:29:30;3.50;99.90
36416;DHT22;22447;44.530;18.620;2023-03-01T17:31:57;3.60;99.90
36416;DHT22;22447;44.530;18.620;2023-03-01T17:34:23;3.60;99.90
36416;DHT22;22447;44.530;18.620;2023-03-01T17:36:50;3.50;99.90
36416;DHT22;22447;44.530;18.620;2023-03-01T17:39:17;3.50;99.90
36416;DHT22;22447;44.530;18.620;2023-03-01T17:41:54;3.50;99.90
36416;DHT22;22447;44.530;18.620;2023-03-01T17:44:20;3.50;99.90
36416;DHT22;22447;44.530;18.620;2023-03-01T17:46:46;3.40;99.90
36416;DHT22;22447;44.530;18.620;2023-03-01T17:49:12;3.50;99.90
36416;DHT22;22447;44.530;18.620;2023-03-01T17:51:38;3.50;99.90
36416;DHT22;22447;44.530;18.620;2023-03-01T17:54:04;3.40;99.90
36416;DHT22;22447;44.530;18.620;2023-03-01T17:56:30;3.40;99.90
36416;DHT22;22447;44.530;18.620;2023-03-01T17:58:59;3.30;99.90
36416;DHT22;22447;44.530;18.620;2023-03-01T18:01:26;3.30;99.90
36416;DHT22;22447;44.530;18.620;2023-03-01T18:03:52;3.20;99.90